Ripley, Canada
Current Conditions -  °F | °C
As of 11:00 AM on Saturday 20 Dec 2014 (Local Time) from CYVV Reporting Station
Broken Clouds Broken Clouds  
Wind Chill: 28°   Ceiling: 10000
Heat Index: 28°   Visibility: 15mi
Dew Point: 23°   Wind: 3mph
Humidity: 80%   Direction: 340°NNW
Pressure: 30.29"   Gusts: NA
Location:  44.07°N, 81.58°W
Report Text: CYVV 201600Z 34003KT 290V050 15SM FEW015 BKN100 M02/M05 A3029 RMK CF1AC5 SLP268
Loading
Personal Weather Stations






























Interactive Weather Map New forecast layout! Learn more

10-Day Weather Forecast

Advertisements
Track Severe Weather on mobile